sensor_id;sensor_type;location;lat;lon;timestamp;pressure;altitude;pressure_sealevel;temperature;humidity
19751;BME280;4663;49.120;9.730;2023-04-02T00:09:16;97246.88;;;4.83;95.69
19751;BME280;4663;49.120;9.730;2023-04-02T00:11:43;97248.88;;;4.56;96.88
19751;BME280;4663;49.120;9.730;2023-04-02T00:14:25;97253.88;;;4.84;96.26
19751;BME280;4663;49.120;9.730;2023-04-02T00:16:52;97256.56;;;4.59;96.20
19751;BME280;4663;49.120;9.730;2023-04-02T00:20:07;97250.56;;;4.82;95.92
19751;BME280;4663;49.120;9.730;2023-04-02T00:22:14;97257.25;;;4.69;95.79
19751;BME280;4663;49.120;9.730;2023-04-02T00:24:41;97266.25;;;4.68;96.40
19751;BME280;4663;49.120;9.730;2023-04-02T00:27:10;97256.56;;;4.59;96.79
19751;BME280;4663;49.120;9.730;2023-04-02T00:29:44;97261.09;;;4.75;96.48
19751;BME280;4663;49.120;9.730;2023-04-02T00:32:16;97266.94;;;4.79;96.25
19751;BME280;4663;49.120;9.730;2023-04-02T00:34:43;97263.94;;;4.73;96.61
19751;BME280;4663;49.120;9.730;2023-04-02T00:37:16;97262.22;;;4.72;96.15
19751;BME280;4663;49.120;9.730;2023-04-02T00:39:49;97263.59;;;4.93;95.97
19751;BME280;4663;49.120;9.730;2023-04-02T00:42:15;97263.72;;;4.50;96.91
19751;BME280;4663;49.120;9.730;2023-04-02T00:44:44;97269.59;;;4.87;95.94
19751;BME280;4663;49.120;9.730;2023-04-02T00:47:19;97269.59;;;4.70;96.71
19751;BME280;4663;49.120;9.730;2023-04-02T00:49:44;97269.59;;;4.95;95.53
19751;BME280;4663;49.120;9.730;2023-04-02T00:52:13;97270.28;;;4.97;95.53
19751;BME280;4663;49.120;9.730;2023-04-02T00:54:49;97267.09;;;4.94;94.70
19751;BME280;4663;49.120;9.730;2023-04-02T00:57:21;97263.25;;;4.80;95.25
19751;BME280;4663;49.120;9.730;2023-04-02T01:02:31;97270.94;;;4.75;95.96
19751;BME280;4663;49.120;9.730;2023-04-02T01:08:09;97280.44;;;4.94;95.12
19751;BME280;4663;49.120;9.730;2023-04-02T01:15:59;97274.78;;;4.80;95.75
19751;BME280;4663;49.120;9.730;2023-04-02T01:21:17;97279.97;;;4.82;95.13
19751;BME280;4663;49.120;9.730;2023-04-02T01:26:44;97291.50;;;4.91;95.12
19751;BME280;4663;49.120;9.730;2023-04-02T01:31:39;97287.31;;;4.96;95.07
19751;BME280;4663;49.120;9.730;2023-04-02T01:34:07;97293.19;;;4.83;95.43
19751;BME280;4663;49.120;9.730;2023-04-02T01:42:24;97299.69;;;4.97;94.08
19751;BME280;4663;49.120;9.730;2023-04-02T01:45:02;97297.34;;;4.78;95.14
19751;BME280;4663;49.120;9.730;2023-04-02T01:47:28;97306.88;;;4.80;94.83
19751;BME280;4663;49.120;9.730;2023-04-02T01:50:02;97309.72;;;4.95;94.67
19751;BME280;4663;49.120;9.730;2023-04-02T01:52:40;97309.06;;;4.93;94.28
19751;BME280;4663;49.120;9.730;2023-04-02T01:55:10;97310.03;;;4.92;94.13
19751;BME280;4663;49.120;9.730;2023-04-02T01:57:40;97308.06;;;4.94;93.55
19751;BME280;4663;49.120;9.730;2023-04-02T02:00:10;97315.38;;;4.92;93.06
19751;BME280;4663;49.120;9.730;2023-04-02T02:02:37;97315.69;;;4.64;94.61
19751;BME280;4663;49.120;9.730;2023-04-02T02:05:05;97328.03;;;4.40;96.06
19751;BME280;4663;49.120;9.730;2023-04-02T02:07:36;97320.66;;;4.34;95.88
19751;BME280;4663;49.120;9.730;2023-04-02T02:10:02;97326.16;;;4.24;96.98
19751;BME280;4663;49.120;9.730;2023-04-02T02:12:28;97331.19;;;4.36;97.87
19751;BME280;4663;49.120;9.730;2023-04-02T02:14:53;97326.72;;;4.53;95.68
19751;BME280;4663;49.120;9.730;2023-04-02T02:17:28;97327.75;;;4.68;95.59
19751;BME280;4663;49.120;9.730;2023-04-02T02:19:59;97333.22;;;4.50;95.32
19751;BME280;4663;49.120;9.730;2023-04-02T02:24:55;97335.28;;;4.81;94.81
19751;BME280;4663;49.120;9.730;2023-04-02T02:29:57;97339.97;;;4.71;94.53
19751;BME280;4663;49.120;9.730;2023-04-02T02:32:29;97338.97;;;4.80;93.85
19751;BME280;4663;49.120;9.730;2023-04-02T02:35:20;97347.00;;;4.89;93.69
19751;BME280;4663;49.120;9.730;2023-04-02T02:37:54;97348.81;;;4.80;93.32
19751;BME280;4663;49.120;9.730;2023-04-02T02:40:27;97349.81;;;4.79;93.97
19751;BME280;4663;49.120;9.730;2023-04-02T02:42:57;97355.19;;;4.79;94.05
19751;BME280;4663;49.120;9.730;2023-04-02T02:45:27;97356.44;;;4.41;95.55
19751;BME280;4663;49.120;9.730;2023-04-02T02:47:56;97360.63;;;4.44;96.04
19751;BME280;4663;49.120;9.730;2023-04-02T02:50:25;97355.00;;;4.72;95.15
19751;BME280;4663;49.120;9.730;2023-04-02T02:52:57;97358.16;;;4.59;95.10
19751;BME280;4663;49.120;9.730;2023-04-02T02:55:32;97358.84;;;4.69;94.80
19751;BME280;4663;49.120;9.730;2023-04-02T03:00:29;97361.84;;;4.66;94.67
19751;BME280;4663;49.120;9.730;2023-04-02T03:02:55;97367.50;;;4.55;94.78
19751;BME280;4663;49.120;9.730;2023-04-02T03:05:23;97364.69;;;4.65;95.00
19751;BME280;4663;49.120;9.730;2023-04-02T03:07:52;97368.84;;;4.67;94.49
19751;BME280;4663;49.120;9.730;2023-04-02T03:13:36;97371.84;;;4.64;94.48
19751;BME280;4663;49.120;9.730;2023-04-02T03:27:29;97387.56;;;4.67;94.93
19751;BME280;4663;49.120;9.730;2023-04-02T03:30:03;97383.25;;;4.75;93.79
19751;BME280;4663;49.120;9.730;2023-04-02T03:32:33;97385.91;;;4.66;94.62
19751;BME280;4663;49.120;9.730;2023-04-02T03:38:32;97396.13;;;4.28;95.83
19751;BME280;4663;49.120;9.730;2023-04-02T03:41:13;97399.06;;;4.51;95.40
19751;BME280;4663;49.120;9.730;2023-04-02T03:43:45;97402.59;;;4.60;95.09
19751;BME280;4663;49.120;9.730;2023-04-02T03:46:23;97398.94;;;4.61;94.64
19751;BME280;4663;49.120;9.730;2023-04-02T03:48:59;97400.16;;;4.75;94.31
19751;BME280;4663;49.120;9.730;2023-04-02T03:54:00;97412.38;;;4.00;97.97
19751;BME280;4663;49.120;9.730;2023-04-02T03:56:29;97414.53;;;3.96;98.18
19751;BME280;4663;49.120;9.730;2023-04-02T03:59:23;97405.78;;;4.20;97.71
19751;BME280;4663;49.120;9.730;2023-04-02T04:01:58;97418.50;;;4.27;97.13
19751;BME280;4663;49.120;9.730;2023-04-02T04:04:29;97421.16;;;4.18;97.71
19751;BME280;4663;49.120;9.730;2023-04-02T04:06:57;97426.19;;;3.95;98.58
19751;BME280;4663;49.120;9.730;2023-04-02T04:09:28;97427.69;;;3.89;99.45
19751;BME280;4663;49.120;9.730;2023-04-02T04:12:16;97430.75;;;4.03;99.04
19751;BME280;4663;49.120;9.730;2023-04-02T04:14:51;97427.50;;;4.17;97.58
19751;BME280;4663;49.120;9.730;2023-04-02T04:17:32;97428.81;;;4.13;96.96
19751;BME280;4663;49.120;9.730;2023-04-02T04:22:31;97435.50;;;4.17;97.96
19751;BME280;4663;49.120;9.730;2023-04-02T04:25:00;97430.59;;;4.39;96.94
19751;BME280;4663;49.120;9.730;2023-04-02T04:27:42;97445.63;;;4.40;96.34
19751;BME280;4663;49.120;9.730;2023-04-02T04:30:30;97448.50;;;4.12;97.51
19751;BME280;4663;49.120;9.730;2023-04-02T04:33:15;97453.94;;;4.02;98.26
19751;BME280;4663;49.120;9.730;2023-04-02T04:35:50;97456.75;;;4.01;98.49
19751;BME280;4663;49.120;9.730;2023-04-02T04:38:20;97456.81;;;4.36;97.10
19751;BME280;4663;49.120;9.730;2023-04-02T04:40:54;97460.34;;;4.09;97.04
19751;BME280;4663;49.120;9.730;2023-04-02T04:43:29;97460.03;;;4.13;97.55
19751;BME280;4663;49.120;9.730;2023-04-02T04:46:09;97469.75;;;4.22;97.52
19751;BME280;4663;49.120;9.730;2023-04-02T04:48:57;97474.31;;;4.30;96.35
19751;BME280;4663;49.120;9.730;2023-04-02T04:51:28;97472.50;;;4.39;95.97
19751;BME280;4663;49.120;9.730;2023-04-02T04:53:56;97479.28;;;4.25;97.25
19751;BME280;4663;49.120;9.730;2023-04-02T04:56:27;97484.97;;;4.21;97.51
19751;BME280;4663;49.120;9.730;2023-04-02T05:01:39;97489.91;;;4.43;96.39
19751;BME280;4663;49.120;9.730;2023-04-02T05:06:59;97498.88;;;4.33;96.51
19751;BME280;4663;49.120;9.730;2023-04-02T05:09:31;97499.94;;;4.41;96.61
19751;BME280;4663;49.120;9.730;2023-04-02T05:14:45;97502.75;;;4.39;96.76
19751;BME280;4663;49.120;9.730;2023-04-02T05:17:38;97506.28;;;4.13;97.75
19751;BME280;4663;49.120;9.730;2023-04-02T05:20:16;97506.50;;;4.20;97.40
19751;BME280;4663;49.120;9.730;2023-04-02T05:22:54;97511.94;;;4.37;97.27
19751;BME280;4663;49.120;9.730;2023-04-02T05:25:26;97526.47;;;4.34;96.58
19751;BME280;4663;49.120;9.730;2023-04-02T05:28:05;97522.03;;;4.51;95.59
19751;BME280;4663;49.120;9.730;2023-04-02T05:30:38;97523.81;;;4.42;96.83
19751;BME280;4663;49.120;9.730;2023-04-02T05:33:17;97532.47;;;4.36;96.80
19751;BME280;4663;49.120;9.730;2023-04-02T05:35:45;97537.53;;;4.47;96.75
19751;BME280;4663;49.120;9.730;2023-04-02T05:38:24;97538.84;;;4.43;96.89
19751;BME280;4663;49.120;9.730;2023-04-02T05:40:58;97541.38;;;4.80;95.73
19751;BME280;4663;49.120;9.730;2023-04-02T05:43:25;97549.97;;;4.57;95.62
19751;BME280;4663;49.120;9.730;2023-04-02T05:45:54;97545.81;;;4.36;97.47
19751;BME280;4663;49.120;9.730;2023-04-02T05:48:28;97550.97;;;4.56;96.59
19751;BME280;4663;49.120;9.730;2023-04-02T05:50:57;97560.41;;;4.42;97.19
19751;BME280;4663;49.120;9.730;2023-04-02T05:53:48;97557.78;;;4.77;95.86
19751;BME280;4663;49.120;9.730;2023-04-02T05:59:40;97572.34;;;4.56;96.77
19751;BME280;4663;49.120;9.730;2023-04-02T06:04:30;97580.09;;;4.67;95.56
19751;BME280;4663;49.120;9.730;2023-04-02T06:07:04;97581.06;;;4.58;95.81
19751;BME280;4663;49.120;9.730;2023-04-02T06:09:45;97577.53;;;4.92;95.34
19751;BME280;4663;49.120;9.730;2023-04-02T06:14:42;97577.91;;;4.97;95.35
19751;BME280;4663;49.120;9.730;2023-04-02T06:17:12;97586.34;;;5.11;95.18
19751;BME280;4663;49.120;9.730;2023-04-02T06:19:39;97591.63;;;5.03;95.88
19751;BME280;4663;49.120;9.730;2023-04-02T06:22:31;97590.75;;;4.94;96.28
19751;BME280;4663;49.120;9.730;2023-04-02T06:25:08;97602.41;;;5.11;95.50
19751;BME280;4663;49.120;9.730;2023-04-02T06:27:38;97598.06;;;5.10;95.36
19751;BME280;4663;49.120;9.730;2023-04-02T06:30:15;97599.94;;;4.91;96.35
19751;BME280;4663;49.120;9.730;2023-04-02T06:32:41;97600.13;;;5.24;95.73
19751;BME280;4663;49.120;9.730;2023-04-02T06:35:11;97606.31;;;5.33;95.09
19751;BME280;4663;49.120;9.730;2023-04-02T06:37:39;97609.53;;;5.02;94.47
19751;BME280;4663;49.120;9.730;2023-04-02T06:40:23;97615.56;;;5.39;94.42
19751;BME280;4663;49.120;9.730;2023-04-02T06:42:50;97617.56;;;5.37;93.29
19751;BME280;4663;49.120;9.730;2023-04-02T06:45:27;97623.44;;;5.49;93.15
19751;BME280;4663;49.120;9.730;2023-04-02T06:47:56;97627.63;;;5.52;92.24
19751;BME280;4663;49.120;9.730;2023-04-02T06:50:26;97631.97;;;5.44;92.40
19751;BME280;4663;49.120;9.730;2023-04-02T06:52:57;97637.00;;;5.56;93.29
19751;BME280;4663;49.120;9.730;2023-04-02T06:55:46;97643.34;;;5.46;92.53
19751;BME280;4663;49.120;9.730;2023-04-02T06:58:15;97651.38;;;5.46;92.96
19751;BME280;4663;49.120;9.730;2023-04-02T07:00:43;97644.66;;;5.34;93.48
19751;BME280;4663;49.120;9.730;2023-04-02T07:03:22;97661.34;;;5.28;94.44
19751;BME280;4663;49.120;9.730;2023-04-02T07:05:48;97657.06;;;5.43;94.13
19751;BME280;4663;49.120;9.730;2023-04-02T07:08:14;97664.13;;;5.53;93.49
19751;BME280;4663;49.120;9.730;2023-04-02T07:10:39;97660.09;;;5.48;92.98
19751;BME280;4663;49.120;9.730;2023-04-02T07:13:05;97675.28;;;5.40;94.96
19751;BME280;4663;49.120;9.730;2023-04-02T07:15:31;97670.50;;;5.60;94.49
19751;BME280;4663;49.120;9.730;2023-04-02T07:17:57;97671.34;;;5.60;93.65
19751;BME280;4663;49.120;9.730;2023-04-02T07:20:33;97676.19;;;5.57;93.84
19751;BME280;4663;49.120;9.730;2023-04-02T07:23:02;97678.94;;;5.73;94.06
19751;BME280;4663;49.120;9.730;2023-04-02T07:25:28;97675.34;;;5.56;94.90
19751;BME280;4663;49.120;9.730;2023-04-02T07:27:54;97689.09;;;5.70;94.81
19751;BME280;4663;49.120;9.730;2023-04-02T07:30:20;97688.28;;;5.69;94.88
19751;BME280;4663;49.120;9.730;2023-04-02T07:32:45;97692.03;;;5.85;94.24
19751;BME280;4663;49.120;9.730;2023-04-02T07:35:11;97699.91;;;5.86;94.65
19751;BME280;4663;49.120;9.730;2023-04-02T07:37:37;97701.88;;;5.84;94.54
19751;BME280;4663;49.120;9.730;2023-04-02T07:40:13;97704.88;;;5.81;94.52
19751;BME280;4663;49.120;9.730;2023-04-02T07:42:39;97705.38;;;5.76;96.07
19751;BME280;4663;49.120;9.730;2023-04-02T07:45:05;97712.25;;;5.71;95.87
19751;BME280;4663;49.120;9.730;2023-04-02T07:47:31;97714.44;;;5.84;94.98
19751;BME280;4663;49.120;9.730;2023-04-02T07:49:56;97712.06;;;5.72;94.63
19751;BME280;4663;49.120;9.730;2023-04-02T07:52:22;97724.00;;;5.86;95.10
19751;BME280;4663;49.120;9.730;2023-04-02T07:54:47;97726.88;;;6.01;93.85
19751;BME280;4663;49.120;9.730;2023-04-02T07:57:12;97733.91;;;6.02;94.54
19751;BME280;4663;49.120;9.730;2023-04-02T07:59:38;97740.94;;;6.04;94.40
19751;BME280;4663;49.120;9.730;2023-04-02T08:02:03;97724.81;;;5.87;93.14
19751;BME280;4663;49.120;9.730;2023-04-02T08:04:29;97739.81;;;6.06;94.38
19751;BME280;4663;49.120;9.730;2023-04-02T08:06:55;97737.56;;;5.85;94.32
19751;BME280;4663;49.120;9.730;2023-04-02T08:09:20;97746.84;;;6.07;94.42
19751;BME280;4663;49.120;9.730;2023-04-02T08:11:46;97751.28;;;5.82;93.97
19751;BME280;4663;49.120;9.730;2023-04-02T08:14:11;97744.84;;;5.66;96.97
19751;BME280;4663;49.120;9.730;2023-04-02T08:16:48;97743.59;;;5.87;96.13
19751;BME280;4663;49.120;9.730;2023-04-02T08:19:14;97747.59;;;5.91;94.84
19751;BME280;4663;49.120;9.730;2023-04-02T08:21:40;97752.38;;;6.14;94.36
19751;BME280;4663;49.120;9.730;2023-04-02T08:24:06;97746.97;;;5.97;94.10
19751;BME280;4663;49.120;9.730;2023-04-02T08:26:31;97761.28;;;6.23;94.47
19751;BME280;4663;49.120;9.730;2023-04-02T08:28:57;97762.34;;;5.87;94.00
19751;BME280;4663;49.120;9.730;2023-04-02T08:31:22;97763.09;;;5.62;93.99
19751;BME280;4663;49.120;9.730;2023-04-02T08:33:48;97775.97;;;6.02;95.82
19751;BME280;4663;49.120;9.730;2023-04-02T08:36:17;97770.75;;;5.92;94.08
19751;BME280;4663;49.120;9.730;2023-04-02T08:38:43;97784.69;;;6.12;92.43
19751;BME280;4663;49.120;9.730;2023-04-02T08:41:19;97788.00;;;6.49;93.42
19751;BME280;4663;49.120;9.730;2023-04-02T08:44:06;97794.53;;;6.04;92.79
19751;BME280;4663;49.120;9.730;2023-04-02T08:46:48;97791.41;;;6.17;91.89
19751;BME280;4663;49.120;9.730;2023-04-02T08:49:21;97792.63;;;6.39;91.29
19751;BME280;4663;49.120;9.730;2023-04-02T08:51:51;97797.22;;;6.55;90.31
19751;BME280;4663;49.120;9.730;2023-04-02T08:54:33;97797.88;;;6.57;91.27
19751;BME280;4663;49.120;9.730;2023-04-02T08:59:35;97804.78;;;6.60;91.24
19751;BME280;4663;49.120;9.730;2023-04-02T09:05:01;97816.88;;;6.72;91.70
19751;BME280;4663;49.120;9.730;2023-04-02T09:07:28;97815.84;;;6.65;89.95
19751;BME280;4663;49.120;9.730;2023-04-02T09:09:53;97823.19;;;6.55;91.18
19751;BME280;4663;49.120;9.730;2023-04-02T09:12:24;97826.59;;;6.90;91.86
19751;BME280;4663;49.120;9.730;2023-04-02T09:17:25;97831.63;;;7.01;90.83
19751;BME280;4663;49.120;9.730;2023-04-02T09:19:55;97823.09;;;7.14;88.38
19751;BME280;4663;49.120;9.730;2023-04-02T09:22:31;97820.03;;;7.01;89.38
19751;BME280;4663;49.120;9.730;2023-04-02T09:24:59;97834.13;;;7.36;91.48
19751;BME280;4663;49.120;9.730;2023-04-02T09:27:30;97823.41;;;7.28;89.01
19751;BME280;4663;49.120;9.730;2023-04-02T09:30:01;97829.09;;;7.41;87.15
19751;BME280;4663;49.120;9.730;2023-04-02T09:32:50;97842.81;;;7.63;90.35
19751;BME280;4663;49.120;9.730;2023-04-02T09:35:22;97831.78;;;7.50;85.35
19751;BME280;4663;49.120;9.730;2023-04-02T09:43:19;97843.94;;;7.94;87.37
19751;BME280;4663;49.120;9.730;2023-04-02T09:48:34;97854.94;;;7.51;84.66
19751;BME280;4663;49.120;9.730;2023-04-02T09:51:14;97854.94;;;6.92;86.19
19751;BME280;4663;49.120;9.730;2023-04-02T09:53:44;97868.47;;;6.58;86.57
19751;BME280;4663;49.120;9.730;2023-04-02T09:56:18;97863.97;;;6.66;88.15
19751;BME280;4663;49.120;9.730;2023-04-02T10:01:30;97870.00;;;6.69;87.97
19751;BME280;4663;49.120;9.730;2023-04-02T10:03:57;97882.31;;;7.13;87.21
19751;BME280;4663;49.120;9.730;2023-04-02T10:06:24;97890.00;;;7.66;88.71
19751;BME280;4663;49.120;9.730;2023-04-02T10:08:51;97882.63;;;7.35;85.45
19751;BME280;4663;49.120;9.730;2023-04-02T10:13:58;97887.81;;;7.53;87.40
19751;BME280;4663;49.120;9.730;2023-04-02T10:16:40;97901.09;;;7.46;86.46
19751;BME280;4663;49.120;9.730;2023-04-02T10:21:53;97908.13;;;7.39;86.57
19751;BME280;4663;49.120;9.730;2023-04-02T10:24:18;97905.78;;;7.19;89.14
19751;BME280;4663;49.120;9.730;2023-04-02T10:32:07;97899.06;;;8.38;83.75
19751;BME280;4663;49.120;9.730;2023-04-02T10:35:18;97902.94;;;8.67;83.16
19751;BME280;4663;49.120;9.730;2023-04-02T10:38:08;97898.97;;;8.95;83.76
19751;BME280;4663;49.120;9.730;2023-04-02T10:40:22;97901.97;;;8.92;82.83
19751;BME280;4663;49.120;9.730;2023-04-02T10:45:53;97911.06;;;8.91;84.17
19751;BME280;4663;49.120;9.730;2023-04-02T10:57:21;97926.28;;;7.28;83.56
19751;BME280;4663;49.120;9.730;2023-04-02T11:00:04;97929.63;;;7.64;84.67
19751;BME280;4663;49.120;9.730;2023-04-02T11:05:16;97928.28;;;7.76;83.91
19751;BME280;4663;49.120;9.730;2023-04-02T11:07:53;97924.09;;;7.65;82.44
19751;BME280;4663;49.120;9.730;2023-04-02T11:10:21;97956.09;;;6.92;87.32
19751;BME280;4663;49.120;9.730;2023-04-02T11:13:17;97961.00;;;6.53;88.13
19751;BME280;4663;49.120;9.730;2023-04-02T11:15:44;97967.47;;;5.89;90.31
19751;BME280;4663;49.120;9.730;2023-04-02T11:18:30;97965.22;;;5.76;91.25
19751;BME280;4663;49.120;9.730;2023-04-02T11:23:56;97975.44;;;5.36;94.03
19751;BME280;4663;49.120;9.730;2023-04-02T11:26:36;97986.44;;;5.52;94.04
19751;BME280;4663;49.120;9.730;2023-04-02T11:29:23;97984.78;;;5.50;94.92
19751;BME280;4663;49.120;9.730;2023-04-02T11:31:51;97984.69;;;5.42;94.58
19751;BME280;4663;49.120;9.730;2023-04-02T11:37:38;97991.81;;;5.52;92.86
19751;BME280;4663;49.120;9.730;2023-04-02T11:42:48;97997.13;;;6.14;92.37
19751;BME280;4663;49.120;9.730;2023-04-02T11:50:41;98023.56;;;5.46;92.23
19751;BME280;4663;49.120;9.730;2023-04-02T11:55:42;98020.31;;;5.97;91.27
19751;BME280;4663;49.120;9.730;2023-04-02T12:06:26;98031.59;;;5.65;89.88
19751;BME280;4663;49.120;9.730;2023-04-02T12:11:42;98038.63;;;5.29;89.43
19751;BME280;4663;49.120;9.730;2023-04-02T12:17:03;98041.00;;;5.50;88.31
19751;BME280;4663;49.120;9.730;2023-04-02T12:19:30;98041.94;;;5.41;89.42
19751;BME280;4663;49.120;9.730;2023-04-02T12:21:57;98047.28;;;5.41;89.20
19751;BME280;4663;49.120;9.730;2023-04-02T12:24:24;98039.22;;;5.96;87.52
19751;BME280;4663;49.120;9.730;2023-04-02T12:27:18;98040.69;;;6.17;86.50
19751;BME280;4663;49.120;9.730;2023-04-02T12:29:48;98046.41;;;5.95;88.50
19751;BME280;4663;49.120;9.730;2023-04-02T12:32:26;98068.03;;;5.11;88.72
19751;BME280;4663;49.120;9.730;2023-04-02T12:34:53;98067.25;;;5.65;88.55
19751;BME280;4663;49.120;9.730;2023-04-02T12:37:28;98071.41;;;5.13;89.39
19751;BME280;4663;49.120;9.730;2023-04-02T12:40:00;98071.31;;;4.67;88.97
19751;BME280;4663;49.120;9.730;2023-04-02T12:42:37;98076.66;;;5.05;87.81
19751;BME280;4663;49.120;9.730;2023-04-02T12:45:04;98068.22;;;5.28;86.57
19751;BME280;4663;49.120;9.730;2023-04-02T12:47:31;98086.31;;;5.62;85.99
19751;BME280;4663;49.120;9.730;2023-04-02T12:49:59;98080.66;;;5.65;84.99
19751;BME280;4663;49.120;9.730;2023-04-02T12:52:27;98083.63;;;5.62;85.03
19751;BME280;4663;49.120;9.730;2023-04-02T12:54:57;98089.19;;;5.32;86.69
19751;BME280;4663;49.120;9.730;2023-04-02T13:02:21;98109.53;;;4.87;88.28
19751;BME280;4663;49.120;9.730;2023-04-02T13:04:52;98111.94;;;4.80;89.41
19751;BME280;4663;49.120;9.730;2023-04-02T13:07:20;98104.25;;;4.67;87.99
19751;BME280;4663;49.120;9.730;2023-04-02T13:09:48;98105.94;;;4.58;88.48
19751;BME280;4663;49.120;9.730;2023-04-02T13:14:55;98124.72;;;4.39;87.82
19751;BME280;4663;49.120;9.730;2023-04-02T13:20:34;98121.53;;;4.73;87.40
19751;BME280;4663;49.120;9.730;2023-04-02T13:23:22;98116.13;;;4.45;87.08
19751;BME280;4663;49.120;9.730;2023-04-02T13:25:46;98123.25;;;4.64;87.24
19751;BME280;4663;49.120;9.730;2023-04-02T13:28:12;98138.22;;;4.47;86.99
19751;BME280;4663;49.120;9.730;2023-04-02T13:30:37;98146.09;;;4.39;87.35
19751;BME280;4663;49.120;9.730;2023-04-02T13:33:02;98142.59;;;4.38;86.59
19751;BME280;4663;49.120;9.730;2023-04-02T13:35:28;98145.97;;;4.20;86.30
19751;BME280;4663;49.120;9.730;2023-04-02T13:37:53;98150.00;;;4.54;86.55
19751;BME280;4663;49.120;9.730;2023-04-02T13:40:18;98144.25;;;4.49;86.04
19751;BME280;4663;49.120;9.730;2023-04-02T13:42:45;98136.88;;;4.81;85.29
19751;BME280;4663;49.120;9.730;2023-04-02T13:47:48;98156.19;;;4.65;87.33
19751;BME280;4663;49.120;9.730;2023-04-02T13:50:16;98156.38;;;4.43;87.47
19751;BME280;4663;49.120;9.730;2023-04-02T13:52:42;98158.66;;;4.18;87.75
19751;BME280;4663;49.120;9.730;2023-04-02T13:55:07;98161.47;;;4.27;88.43
19751;BME280;4663;49.120;9.730;2023-04-02T13:57:34;98171.25;;;4.56;88.17
19751;BME280;4663;49.120;9.730;2023-04-02T14:00:00;98161.59;;;4.15;86.30
19751;BME280;4663;49.120;9.730;2023-04-02T14:02:26;98174.41;;;4.12;85.98
19751;BME280;4663;49.120;9.730;2023-04-02T14:19:48;98189.88;;;4.08;82.15
19751;BME280;4663;49.120;9.730;2023-04-02T14:25:35;98200.56;;;4.08;83.12
19751;BME280;4663;49.120;9.730;2023-04-02T14:42:40;98209.47;;;3.57;85.25
19751;BME280;4663;49.120;9.730;2023-04-02T14:45:13;98214.69;;;3.59;84.24
19751;BME280;4663;49.120;9.730;2023-04-02T14:47:47;98214.38;;;3.52;84.41
19751;BME280;4663;49.120;9.730;2023-04-02T14:50:18;98214.69;;;3.59;84.24
19751;BME280;4663;49.120;9.730;2023-04-02T14:52:50;98227.06;;;3.39;84.87
19751;BME280;4663;49.120;9.730;2023-04-02T14:55:29;98233.28;;;3.39;84.58
19751;BME280;4663;49.120;9.730;2023-04-02T14:57:59;98236.59;;;3.63;84.30
19751;BME280;4663;49.120;9.730;2023-04-02T15:03:08;98253.69;;;2.98;85.25
19751;BME280;4663;49.120;9.730;2023-04-02T15:08:11;98255.44;;;3.30;84.42
19751;BME280;4663;49.120;9.730;2023-04-02T15:13:56;98251.69;;;3.42;83.20
19751;BME280;4663;49.120;9.730;2023-04-02T15:16:24;98264.13;;;3.53;83.01
19751;BME280;4663;49.120;9.730;2023-04-02T15:18:58;98266.19;;;3.18;83.55
19751;BME280;4663;49.120;9.730;2023-04-02T15:24:16;98276.59;;;3.53;83.76
19751;BME280;4663;49.120;9.730;2023-04-02T15:27:17;98283.38;;;3.26;83.70
19751;BME280;4663;49.120;9.730;2023-04-02T16:10:52;98324.78;;;2.22;83.92
19751;BME280;4663;49.120;9.730;2023-04-02T16:13:34;98333.38;;;2.37;83.31
19751;BME280;4663;49.120;9.730;2023-04-02T16:21:32;98334.00;;;2.18;82.76
19751;BME280;4663;49.120;9.730;2023-04-02T16:23:58;98355.00;;;1.99;83.03
19751;BME280;4663;49.120;9.730;2023-04-02T16:32:11;98362.22;;;2.20;82.91
19751;BME280;4663;49.120;9.730;2023-04-02T16:48:09;98387.41;;;1.59;83.10
19751;BME280;4663;49.120;9.730;2023-04-02T17:01:50;98432.19;;;1.54;83.01
19751;BME280;4663;49.120;9.730;2023-04-02T17:10:28;98445.03;;;0.75;83.17
19751;BME280;4663;49.120;9.730;2023-04-02T17:15:47;98458.91;;;0.92;83.25
19751;BME280;4663;49.120;9.730;2023-04-02T17:18:19;98454.78;;;0.88;82.40
19751;BME280;4663;49.120;9.730;2023-04-02T17:20:46;98466.03;;;0.91;82.39
19751;BME280;4663;49.120;9.730;2023-04-02T17:23:13;98458.19;;;0.77;81.92
19751;BME280;4663;49.120;9.730;2023-04-02T17:26:01;98472.03;;;0.82;82.36
19751;BME280;4663;49.120;9.730;2023-04-02T17:28:31;98478.47;;;0.91;81.82
19751;BME280;4663;49.120;9.730;2023-04-02T17:31:10;98473.53;;;0.35;81.33
19751;BME280;4663;49.120;9.730;2023-04-02T17:33:37;98468.84;;;0.39;81.12
19751;BME280;4663;49.120;9.730;2023-04-02T17:39:03;98486.66;;;0.50;80.07
19751;BME280;4663;49.120;9.730;2023-04-02T17:41:55;98502.88;;;0.21;80.32
19751;BME280;4663;49.120;9.730;2023-04-02T17:47:18;98506.47;;;0.33;80.10
19751;BME280;4663;49.120;9.730;2023-04-02T18:14:53;98551.97;;;0.15;78.88
19751;BME280;4663;49.120;9.730;2023-04-02T18:17:28;98550.47;;;-0.02;78.91
19751;BME280;4663;49.120;9.730;2023-04-02T18:28:17;98569.81;;;0.26;77.93
19751;BME280;4663;49.120;9.730;2023-04-02T18:30:57;98579.88;;;0.08;78.09
19751;BME280;4663;49.120;9.730;2023-04-02T18:44:45;98606.84;;;-0.52;76.05
19751;BME280;4663;49.120;9.730;2023-04-02T18:49:49;98620.03;;;-0.37;75.90
19751;BME280;4663;49.120;9.730;2023-04-02T18:52:16;98628.44;;;-0.58;75.43
19751;BME280;4663;49.120;9.730;2023-04-02T18:54:48;98633.81;;;-0.45;75.89
19751;BME280;4663;49.120;9.730;2023-04-02T18:57:38;98631.31;;;-0.34;75.63
19751;BME280;4663;49.120;9.730;2023-04-02T19:02:43;98639.94;;;-0.45;75.30
19751;BME280;4663;49.120;9.730;2023-04-02T19:08:28;98655.22;;;-0.21;75.73
19751;BME280;4663;49.120;9.730;2023-04-02T19:11:02;98642.78;;;0.20;74.78
19751;BME280;4663;49.120;9.730;2023-04-02T19:13:28;98654.09;;;-0.04;74.82
19751;BME280;4663;49.120;9.730;2023-04-02T19:21:59;98664.16;;;-0.22;75.55
19751;BME280;4663;49.120;9.730;2023-04-02T19:24:42;98679.59;;;-0.01;75.65
19751;BME280;4663;49.120;9.730;2023-04-02T19:32:58;98694.69;;;-0.29;76.04
19751;BME280;4663;49.120;9.730;2023-04-02T19:36:01;98702.13;;;-0.49;75.93
19751;BME280;4663;49.120;9.730;2023-04-02T19:41:45;98708.97;;;-0.17;76.02
19751;BME280;4663;49.120;9.730;2023-04-02T19:44:14;98716.16;;;-0.47;75.73
19751;BME280;4663;49.120;9.730;2023-04-02T19:46:40;98712.38;;;-0.43;76.54
19751;BME280;4663;49.120;9.730;2023-04-02T19:49:14;98712.28;;;-0.56;76.86
19751;BME280;4663;49.120;9.730;2023-04-02T19:51:42;98715.00;;;-0.28;76.33
19751;BME280;4663;49.120;9.730;2023-04-02T19:54:08;98704.69;;;0.08;76.00
19751;BME280;4663;49.120;9.730;2023-04-02T19:56:33;98706.81;;;-0.25;76.52
19751;BME280;4663;49.120;9.730;2023-04-02T19:58:59;98705.47;;;-0.18;75.64